sensor_id;sensor_type;location;lat;lon;timestamp;P1;P2;P0
75946;PMS5003;64628;50.104;14.614;2023-03-23T00:02:24;20;17;
75946;PMS5003;64628;50.104;14.614;2023-03-23T00:04:49;24;23;
75946;PMS5003;64628;50.104;14.614;2023-03-23T00:07:15;16;15;
75946;PMS5003;64628;50.104;14.614;2023-03-23T00:09:40;20;16;
75946;PMS5003;64628;50.104;14.614;2023-03-23T00:12:06;23;21;
75946;PMS5003;64628;50.104;14.614;2023-03-23T00:14:31;23;23;
75946;PMS5003;64628;50.104;14.614;2023-03-23T00:16:56;23;17;
75946;PMS5003;64628;50.104;14.614;2023-03-23T00:19:21;19;17;
75946;PMS5003;64628;50.104;14.614;2023-03-23T00:21:46;19;19;
75946;PMS5003;64628;50.104;14.614;2023-03-23T00:24:12;18;17;
75946;PMS5003;64628;50.104;14.614;2023-03-23T00:26:38;17;16;
75946;PMS5003;64628;50.104;14.614;2023-03-23T00:29:03;19;16;
75946;PMS5003;64628;50.104;14.614;2023-03-23T00:31:29;43;38;
75946;PMS5003;64628;50.104;14.614;2023-03-23T00:33:54;22;21;
75946;PMS5003;64628;50.104;14.614;2023-03-23T00:36:19;27;23;
75946;PMS5003;64628;50.104;14.614;2023-03-23T00:38:45;22;20;
75946;PMS5003;64628;50.104;14.614;2023-03-23T00:41:10;22;20;
75946;PMS5003;64628;50.104;14.614;2023-03-23T00:43:36;24;19;
75946;PMS5003;64628;50.104;14.614;2023-03-23T00:46:02;19;16;
75946;PMS5003;64628;50.104;14.614;2023-03-23T00:48:27;26;24;
75946;PMS5003;64628;50.104;14.614;2023-03-23T00:50:52;21;18;
75946;PMS5003;64628;50.104;14.614;2023-03-23T00:53:18;21;18;
75946;PMS5003;64628;50.104;14.614;2023-03-23T00:55:43;27;25;
75946;PMS5003;64628;50.104;14.614;2023-03-23T00:58:09;21;20;
75946;PMS5003;64628;50.104;14.614;2023-03-23T01:00:34;20;18;
75946;PMS5003;64628;50.104;14.614;2023-03-23T01:02:59;22;18;
75946;PMS5003;64628;50.104;14.614;2023-03-23T01:05:24;20;15;
75946;PMS5003;64628;50.104;14.614;2023-03-23T01:07:49;20;18;
75946;PMS5003;64628;50.104;14.614;2023-03-23T01:10:15;13;13;
75946;PMS5003;64628;50.104;14.614;2023-03-23T01:12:40;16;15;
75946;PMS5003;64628;50.104;14.614;2023-03-23T01:15:06;16;16;
75946;PMS5003;64628;50.104;14.614;2023-03-23T01:17:32;22;21;
75946;PMS5003;64628;50.104;14.614;2023-03-23T01:19:57;16;16;
75946;PMS5003;64628;50.104;14.614;2023-03-23T01:22:22;20;16;
75946;PMS5003;64628;50.104;14.614;2023-03-23T01:24:47;15;15;
75946;PMS5003;64628;50.104;14.614;2023-03-23T01:27:13;20;17;
75946;PMS5003;64628;50.104;14.614;2023-03-23T01:29:38;19;17;
75946;PMS5003;64628;50.104;14.614;2023-03-23T01:32:03;22;20;
75946;PMS5003;64628;50.104;14.614;2023-03-23T01:34:29;19;17;
75946;PMS5003;64628;50.104;14.614;2023-03-23T01:36:54;20;19;
75946;PMS5003;64628;50.104;14.614;2023-03-23T01:39:20;13;13;
75946;PMS5003;64628;50.104;14.614;2023-03-23T01:41:45;19;17;
75946;PMS5003;64628;50.104;14.614;2023-03-23T01:46:36;21;19;
75946;PMS5003;64628;50.104;14.614;2023-03-23T01:49:02;20;16;
75946;PMS5003;64628;50.104;14.614;2023-03-23T01:51:26;23;17;
75946;PMS5003;64628;50.104;14.614;2023-03-23T01:53:52;15;15;
75946;PMS5003;64628;50.104;14.614;2023-03-23T01:56:18;19;19;
75946;PMS5003;64628;50.104;14.614;2023-03-23T01:58:43;22;21;
75946;PMS5003;64628;50.104;14.614;2023-03-23T02:01:10;21;18;
75946;PMS5003;64628;50.104;14.614;2023-03-23T02:03:35;22;22;
75946;PMS5003;64628;50.104;14.614;2023-03-23T02:06:00;22;19;
75946;PMS5003;64628;50.104;14.614;2023-03-23T02:08:26;18;18;
75946;PMS5003;64628;50.104;14.614;2023-03-23T02:10:50;17;17;
75946;PMS5003;64628;50.104;14.614;2023-03-23T02:13:16;20;18;
75946;PMS5003;64628;50.104;14.614;2023-03-23T02:15:44;20;18;
75946;PMS5003;64628;50.104;14.614;2023-03-23T02:18:08;21;18;
75946;PMS5003;64628;50.104;14.614;2023-03-23T02:20:34;22;19;
75946;PMS5003;64628;50.104;14.614;2023-03-23T02:25:27;19;18;
75946;PMS5003;64628;50.104;14.614;2023-03-23T02:30:14;23;21;
75946;PMS5003;64628;50.104;14.614;2023-03-23T02:32:47;25;25;
75946;PMS5003;64628;50.104;14.614;2023-03-23T02:35:05;24;22;
75946;PMS5003;64628;50.104;14.614;2023-03-23T02:37:31;24;22;
75946;PMS5003;64628;50.104;14.614;2023-03-23T02:39:56;19;16;
75946;PMS5003;64628;50.104;14.614;2023-03-23T02:42:21;22;19;
75946;PMS5003;64628;50.104;14.614;2023-03-23T02:44:46;21;19;
75946;PMS5003;64628;50.104;14.614;2023-03-23T02:47:12;20;14;
75946;PMS5003;64628;50.104;14.614;2023-03-23T02:49:36;24;21;
75946;PMS5003;64628;50.104;14.614;2023-03-23T02:52:03;25;23;
75946;PMS5003;64628;50.104;14.614;2023-03-23T02:54:27;20;20;
75946;PMS5003;64628;50.104;14.614;2023-03-23T02:56:53;21;19;
75946;PMS5003;64628;50.104;14.614;2023-03-23T02:59:17;21;19;
75946;PMS5003;64628;50.104;14.614;2023-03-23T03:01:48;19;15;
75946;PMS5003;64628;50.104;14.614;2023-03-23T03:04:09;19;17;
75946;PMS5003;64628;50.104;14.614;2023-03-23T03:06:35;17;17;
75946;PMS5003;64628;50.104;14.614;2023-03-23T03:08:59;23;22;
75946;PMS5003;64628;50.104;14.614;2023-03-23T03:11:25;28;21;
75946;PMS5003;64628;50.104;14.614;2023-03-23T03:13:51;27;23;
75946;PMS5003;64628;50.104;14.614;2023-03-23T03:16:18;24;21;
75946;PMS5003;64628;50.104;14.614;2023-03-23T03:18:43;17;16;
75946;PMS5003;64628;50.104;14.614;2023-03-23T03:21:07;22;17;
75946;PMS5003;64628;50.104;14.614;2023-03-23T03:23:32;16;15;
75946;PMS5003;64628;50.104;14.614;2023-03-23T03:25:57;22;19;
75946;PMS5003;64628;50.104;14.614;2023-03-23T03:28:23;24;21;
75946;PMS5003;64628;50.104;14.614;2023-03-23T03:30:49;22;19;
75946;PMS5003;64628;50.104;14.614;2023-03-23T03:33:14;27;25;
75946;PMS5003;64628;50.104;14.614;2023-03-23T03:35:40;20;20;
75946;PMS5003;64628;50.104;14.614;2023-03-23T03:38:06;24;18;
75946;PMS5003;64628;50.104;14.614;2023-03-23T03:40:31;27;23;
75946;PMS5003;64628;50.104;14.614;2023-03-23T03:42:56;19;16;
75946;PMS5003;64628;50.104;14.614;2023-03-23T03:45:22;16;16;
75946;PMS5003;64628;50.104;14.614;2023-03-23T03:47:47;21;21;
75946;PMS5003;64628;50.104;14.614;2023-03-23T03:50:12;22;19;
75946;PMS5003;64628;50.104;14.614;2023-03-23T03:52:38;19;17;
75946;PMS5003;64628;50.104;14.614;2023-03-23T03:55:04;17;16;
75946;PMS5003;64628;50.104;14.614;2023-03-23T03:57:29;17;14;
75946;PMS5003;64628;50.104;14.614;2023-03-23T03:59:54;17;15;
75946;PMS5003;64628;50.104;14.614;2023-03-23T04:02:19;18;15;
75946;PMS5003;64628;50.104;14.614;2023-03-23T04:04:45;19;18;
75946;PMS5003;64628;50.104;14.614;2023-03-23T04:07:10;21;16;
75946;PMS5003;64628;50.104;14.614;2023-03-23T04:09:36;17;16;
75946;PMS5003;64628;50.104;14.614;2023-03-23T04:12:01;20;16;
75946;PMS5003;64628;50.104;14.614;2023-03-23T04:14:27;24;16;
75946;PMS5003;64628;50.104;14.614;2023-03-23T04:16:52;18;17;
75946;PMS5003;64628;50.104;14.614;2023-03-23T04:19:17;15;14;
75946;PMS5003;64628;50.104;14.614;2023-03-23T04:21:43;25;18;
75946;PMS5003;64628;50.104;14.614;2023-03-23T04:24:09;18;14;
75946;PMS5003;64628;50.104;14.614;2023-03-23T04:26:35;18;17;
75946;PMS5003;64628;50.104;14.614;2023-03-23T04:29:00;24;18;
75946;PMS5003;64628;50.104;14.614;2023-03-23T04:31:26;22;22;
75946;PMS5003;64628;50.104;14.614;2023-03-23T04:33:51;18;17;
75946;PMS5003;64628;50.104;14.614;2023-03-23T04:36:16;16;15;
75946;PMS5003;64628;50.104;14.614;2023-03-23T04:38:41;15;15;
75946;PMS5003;64628;50.104;14.614;2023-03-23T04:41:07;19;17;
75946;PMS5003;64628;50.104;14.614;2023-03-23T04:43:33;22;19;
75946;PMS5003;64628;50.104;14.614;2023-03-23T04:45:59;18;15;
75946;PMS5003;64628;50.104;14.614;2023-03-23T04:48:24;16;15;
75946;PMS5003;64628;50.104;14.614;2023-03-23T04:50:49;19;16;
75946;PMS5003;64628;50.104;14.614;2023-03-23T04:53:14;19;17;
75946;PMS5003;64628;50.104;14.614;2023-03-23T04:55:39;22;17;
75946;PMS5003;64628;50.104;14.614;2023-03-23T04:58:06;22;22;
75946;PMS5003;64628;50.104;14.614;2023-03-23T05:00:31;18;17;
75946;PMS5003;64628;50.104;14.614;2023-03-23T05:02:56;16;16;
75946;PMS5003;64628;50.104;14.614;2023-03-23T05:05:22;15;14;
75946;PMS5003;64628;50.104;14.614;2023-03-23T05:07:47;16;15;
75946;PMS5003;64628;50.104;14.614;2023-03-23T05:10:12;19;16;
75946;PMS5003;64628;50.104;14.614;2023-03-23T05:12:38;18;15;
75946;PMS5003;64628;50.104;14.614;2023-03-23T05:15:04;14;13;
75946;PMS5003;64628;50.104;14.614;2023-03-23T05:17:29;16;13;
75946;PMS5003;64628;50.104;14.614;2023-03-23T05:19:54;19;15;
75946;PMS5003;64628;50.104;14.614;2023-03-23T05:22:19;18;16;
75946;PMS5003;64628;50.104;14.614;2023-03-23T05:24:45;15;14;
75946;PMS5003;64628;50.104;14.614;2023-03-23T05:27:10;15;14;
75946;PMS5003;64628;50.104;14.614;2023-03-23T05:29:36;17;16;
75946;PMS5003;64628;50.104;14.614;2023-03-23T05:34:29;15;15;
75946;PMS5003;64628;50.104;14.614;2023-03-23T05:36:52;13;11;
75946;PMS5003;64628;50.104;14.614;2023-03-23T05:39:18;16;14;
75946;PMS5003;64628;50.104;14.614;2023-03-23T05:41:43;15;11;
75946;PMS5003;64628;50.104;14.614;2023-03-23T05:44:09;15;13;
75946;PMS5003;64628;50.104;14.614;2023-03-23T05:46:34;19;19;
75946;PMS5003;64628;50.104;14.614;2023-03-23T05:49:00;19;18;
75946;PMS5003;64628;50.104;14.614;2023-03-23T05:51:25;12;11;
75946;PMS5003;64628;50.104;14.614;2023-03-23T05:53:51;14;14;
75946;PMS5003;64628;50.104;14.614;2023-03-23T05:56:17;12;12;
75946;PMS5003;64628;50.104;14.614;2023-03-23T05:58:42;17;15;
75946;PMS5003;64628;50.104;14.614;2023-03-23T06:01:08;15;15;
75946;PMS5003;64628;50.104;14.614;2023-03-23T06:03:34;14;13;
75946;PMS5003;64628;50.104;14.614;2023-03-23T06:05:59;15;11;
75946;PMS5003;64628;50.104;14.614;2023-03-23T06:08:25;16;13;
75946;PMS5003;64628;50.104;14.614;2023-03-23T06:10:50;15;15;
75946;PMS5003;64628;50.104;14.614;2023-03-23T06:13:15;14;14;
75946;PMS5003;64628;50.104;14.614;2023-03-23T06:15:41;31;27;
75946;PMS5003;64628;50.104;14.614;2023-03-23T06:18:07;22;18;
75946;PMS5003;64628;50.104;14.614;2023-03-23T06:20:33;13;13;
75946;PMS5003;64628;50.104;14.614;2023-03-23T06:22:58;11;11;
75946;PMS5003;64628;50.104;14.614;2023-03-23T06:25:23;15;13;
75946;PMS5003;64628;50.104;14.614;2023-03-23T06:27:49;16;13;
75946;PMS5003;64628;50.104;14.614;2023-03-23T06:30:14;18;18;
75946;PMS5003;64628;50.104;14.614;2023-03-23T06:32:40;13;11;
75946;PMS5003;64628;50.104;14.614;2023-03-23T06:35:05;10;10;
75946;PMS5003;64628;50.104;14.614;2023-03-23T06:37:30;15;11;
75946;PMS5003;64628;50.104;14.614;2023-03-23T06:39:56;26;19;
75946;PMS5003;64628;50.104;14.614;2023-03-23T06:42:21;16;11;
75946;PMS5003;64628;50.104;14.614;2023-03-23T06:44:47;9;8;
75946;PMS5003;64628;50.104;14.614;2023-03-23T06:47:12;13;11;
75946;PMS5003;64628;50.104;14.614;2023-03-23T06:49:37;13;9;
75946;PMS5003;64628;50.104;14.614;2023-03-23T06:52:03;10;10;
75946;PMS5003;64628;50.104;14.614;2023-03-23T06:54:28;13;13;
75946;PMS5003;64628;50.104;14.614;2023-03-23T06:56:53;11;10;
75946;PMS5003;64628;50.104;14.614;2023-03-23T06:59:19;14;10;
75946;PMS5003;64628;50.104;14.614;2023-03-23T07:01:45;15;15;
75946;PMS5003;64628;50.104;14.614;2023-03-23T07:04:11;14;11;
75946;PMS5003;64628;50.104;14.614;2023-03-23T07:06:36;9;8;
75946;PMS5003;64628;50.104;14.614;2023-03-23T07:09:01;10;10;
75946;PMS5003;64628;50.104;14.614;2023-03-23T07:11:27;6;6;
75946;PMS5003;64628;50.104;14.614;2023-03-23T07:13:52;10;9;
75946;PMS5003;64628;50.104;14.614;2023-03-23T07:16:17;8;6;
75946;PMS5003;64628;50.104;14.614;2023-03-23T07:18:42;8;8;
75946;PMS5003;64628;50.104;14.614;2023-03-23T07:21:07;11;10;
75946;PMS5003;64628;50.104;14.614;2023-03-23T07:23:33;10;6;
75946;PMS5003;64628;50.104;14.614;2023-03-23T07:25:58;9;9;
75946;PMS5003;64628;50.104;14.614;2023-03-23T07:28:23;10;10;
75946;PMS5003;64628;50.104;14.614;2023-03-23T07:30:48;10;9;
75946;PMS5003;64628;50.104;14.614;2023-03-23T07:33:14;12;9;
75946;PMS5003;64628;50.104;14.614;2023-03-23T07:35:39;7;6;
75946;PMS5003;64628;50.104;14.614;2023-03-23T07:38:05;7;7;
75946;PMS5003;64628;50.104;14.614;2023-03-23T07:40:30;14;10;
75946;PMS5003;64628;50.104;14.614;2023-03-23T07:42:56;7;6;
75946;PMS5003;64628;50.104;14.614;2023-03-23T07:45:20;10;8;
75946;PMS5003;64628;50.104;14.614;2023-03-23T07:47:45;11;8;
75946;PMS5003;64628;50.104;14.614;2023-03-23T07:50:10;10;7;
75946;PMS5003;64628;50.104;14.614;2023-03-23T07:52:36;8;8;
75946;PMS5003;64628;50.104;14.614;2023-03-23T07:55:01;8;6;
75946;PMS5003;64628;50.104;14.614;2023-03-23T07:57:26;8;7;
75946;PMS5003;64628;50.104;14.614;2023-03-23T07:59:51;8;7;
75946;PMS5003;64628;50.104;14.614;2023-03-23T08:02:16;7;7;
75946;PMS5003;64628;50.104;14.614;2023-03-23T08:04:41;6;6;
75946;PMS5003;64628;50.104;14.614;2023-03-23T08:07:07;12;12;
75946;PMS5003;64628;50.104;14.614;2023-03-23T08:09:32;11;10;
75946;PMS5003;64628;50.104;14.614;2023-03-23T08:11:57;12;10;
75946;PMS5003;64628;50.104;14.614;2023-03-23T08:14:23;17;17;
75946;PMS5003;64628;50.104;14.614;2023-03-23T08:16:48;16;13;
75946;PMS5003;64628;50.104;14.614;2023-03-23T08:19:14;18;16;
75946;PMS5003;64628;50.104;14.614;2023-03-23T08:21:39;6;5;
75946;PMS5003;64628;50.104;14.614;2023-03-23T08:24:04;6;5;
75946;PMS5003;64628;50.104;14.614;2023-03-23T08:26:29;7;7;
75946;PMS5003;64628;50.104;14.614;2023-03-23T08:28:54;5;5;
75946;PMS5003;64628;50.104;14.614;2023-03-23T08:31:20;4;4;
75946;PMS5003;64628;50.104;14.614;2023-03-23T08:33:45;4;4;
75946;PMS5003;64628;50.104;14.614;2023-03-23T08:36:10;8;8;
75946;PMS5003;64628;50.104;14.614;2023-03-23T08:38:35;8;8;
75946;PMS5003;64628;50.104;14.614;2023-03-23T08:41:01;11;11;
75946;PMS5003;64628;50.104;14.614;2023-03-23T08:43:25;6;6;
75946;PMS5003;64628;50.104;14.614;2023-03-23T08:45:50;7;5;
75946;PMS5003;64628;50.104;14.614;2023-03-23T08:48:15;4;4;
75946;PMS5003;64628;50.104;14.614;2023-03-23T08:50:41;6;6;
75946;PMS5003;64628;50.104;14.614;2023-03-23T08:53:06;5;5;
75946;PMS5003;64628;50.104;14.614;2023-03-23T08:55:31;4;4;
75946;PMS5003;64628;50.104;14.614;2023-03-23T08:57:57;5;3;
75946;PMS5003;64628;50.104;14.614;2023-03-23T09:00:22;6;5;
75946;PMS5003;64628;50.104;14.614;2023-03-23T09:02:49;6;5;
75946;PMS5003;64628;50.104;14.614;2023-03-23T09:05:15;5;5;
75946;PMS5003;64628;50.104;14.614;2023-03-23T09:07:41;5;5;
75946;PMS5003;64628;50.104;14.614;2023-03-23T09:10:06;5;5;
75946;PMS5003;64628;50.104;14.614;2023-03-23T09:12:32;4;4;
75946;PMS5003;64628;50.104;14.614;2023-03-23T09:14:57;4;4;
75946;PMS5003;64628;50.104;14.614;2023-03-23T09:17:23;5;5;
75946;PMS5003;64628;50.104;14.614;2023-03-23T09:19:49;3;2;
75946;PMS5003;64628;50.104;14.614;2023-03-23T09:22:15;6;5;
75946;PMS5003;64628;50.104;14.614;2023-03-23T09:24:41;5;5;
75946;PMS5003;64628;50.104;14.614;2023-03-23T09:27:06;3;3;
75946;PMS5003;64628;50.104;14.614;2023-03-23T09:29:32;6;6;
75946;PMS5003;64628;50.104;14.614;2023-03-23T09:31:58;4;4;
75946;PMS5003;64628;50.104;14.614;2023-03-23T09:34:23;5;5;
75946;PMS5003;64628;50.104;14.614;2023-03-23T09:36:49;5;4;
75946;PMS5003;64628;50.104;14.614;2023-03-23T09:39:15;5;5;
75946;PMS5003;64628;50.104;14.614;2023-03-23T09:41:45;5;5;
75946;PMS5003;64628;50.104;14.614;2023-03-23T09:44:07;5;4;
75946;PMS5003;64628;50.104;14.614;2023-03-23T09:46:37;4;4;
75946;PMS5003;64628;50.104;14.614;2023-03-23T09:48:58;4;3;
75946;PMS5003;64628;50.104;14.614;2023-03-23T09:51:29;4;3;
75946;PMS5003;64628;50.104;14.614;2023-03-23T09:53:50;3;3;
75946;PMS5003;64628;50.104;14.614;2023-03-23T09:56:15;4;4;
75946;PMS5003;64628;50.104;14.614;2023-03-23T09:58:43;3;3;
75946;PMS5003;64628;50.104;14.614;2023-03-23T10:01:07;4;4;
75946;PMS5003;64628;50.104;14.614;2023-03-23T10:03:34;7;4;
75946;PMS5003;64628;50.104;14.614;2023-03-23T10:05:58;6;4;
75946;PMS5003;64628;50.104;14.614;2023-03-23T10:08:24;13;13;
75946;PMS5003;64628;50.104;14.614;2023-03-23T10:10:52;6;6;
75946;PMS5003;64628;50.104;14.614;2023-03-23T10:13:17;6;5;
75946;PMS5003;64628;50.104;14.614;2023-03-23T10:15:40;5;5;
75946;PMS5003;64628;50.104;14.614;2023-03-23T10:18:08;8;7;
75946;PMS5003;64628;50.104;14.614;2023-03-23T10:20:32;3;3;
75946;PMS5003;64628;50.104;14.614;2023-03-23T10:22:58;5;5;
75946;PMS5003;64628;50.104;14.614;2023-03-23T10:25:22;6;6;
75946;PMS5003;64628;50.104;14.614;2023-03-23T10:27:48;5;5;
75946;PMS5003;64628;50.104;14.614;2023-03-23T10:30:13;4;4;
75946;PMS5003;64628;50.104;14.614;2023-03-23T10:32:38;7;4;
75946;PMS5003;64628;50.104;14.614;2023-03-23T10:35:01;7;5;
75946;PMS5003;64628;50.104;14.614;2023-03-23T10:37:26;4;4;
75946;PMS5003;64628;50.104;14.614;2023-03-23T10:39:52;3;3;
75946;PMS5003;64628;50.104;14.614;2023-03-23T10:42:22;5;5;
75946;PMS5003;64628;50.104;14.614;2023-03-23T10:44:41;3;3;
75946;PMS5003;64628;50.104;14.614;2023-03-23T10:47:07;3;3;
75946;PMS5003;64628;50.104;14.614;2023-03-23T10:49:37;4;4;
75946;PMS5003;64628;50.104;14.614;2023-03-23T10:51:58;4;4;
75946;PMS5003;64628;50.104;14.614;2023-03-23T10:54:25;3;3;
75946;PMS5003;64628;50.104;14.614;2023-03-23T10:56:46;3;2;
75946;PMS5003;64628;50.104;14.614;2023-03-23T10:59:12;3;3;
75946;PMS5003;64628;50.104;14.614;2023-03-23T11:01:36;4;4;
75946;PMS5003;64628;50.104;14.614;2023-03-23T11:04:01;6;4;
75946;PMS5003;64628;50.104;14.614;2023-03-23T11:06:27;3;3;
75946;PMS5003;64628;50.104;14.614;2023-03-23T11:08:52;4;3;
75946;PMS5003;64628;50.104;14.614;2023-03-23T11:11:17;5;4;
75946;PMS5003;64628;50.104;14.614;2023-03-23T11:13:42;5;4;
75946;PMS5003;64628;50.104;14.614;2023-03-23T11:16:07;4;4;
75946;PMS5003;64628;50.104;14.614;2023-03-23T11:18:34;3;3;
75946;PMS5003;64628;50.104;14.614;2023-03-23T11:20:57;7;5;
75946;PMS5003;64628;50.104;14.614;2023-03-23T11:23:22;4;4;
75946;PMS5003;64628;50.104;14.614;2023-03-23T11:25:52;3;3;
75946;PMS5003;64628;50.104;14.614;2023-03-23T11:28:12;5;4;
75946;PMS5003;64628;50.104;14.614;2023-03-23T11:30:37;4;4;
75946;PMS5003;64628;50.104;14.614;2023-03-23T11:33:02;7;5;
75946;PMS5003;64628;50.104;14.614;2023-03-23T11:35:27;4;4;
75946;PMS5003;64628;50.104;14.614;2023-03-23T11:37:53;5;5;
75946;PMS5003;64628;50.104;14.614;2023-03-23T11:40:18;5;5;
75946;PMS5003;64628;50.104;14.614;2023-03-23T11:42:43;3;3;
75946;PMS5003;64628;50.104;14.614;2023-03-23T11:47:35;3;3;
75946;PMS5003;64628;50.104;14.614;2023-03-23T11:50:00;9;9;
75946;PMS5003;64628;50.104;14.614;2023-03-23T11:52:24;5;5;
75946;PMS5003;64628;50.104;14.614;2023-03-23T11:54:50;5;5;
75946;PMS5003;64628;50.104;14.614;2023-03-23T11:57:13;5;3;
75946;PMS5003;64628;50.104;14.614;2023-03-23T11:59:38;3;2;
75946;PMS5003;64628;50.104;14.614;2023-03-23T12:02:06;4;4;
75946;PMS5003;64628;50.104;14.614;2023-03-23T12:04:35;8;4;
75946;PMS5003;64628;50.104;14.614;2023-03-23T12:06:54;5;5;
75946;PMS5003;64628;50.104;14.614;2023-03-23T12:09:23;3;2;
75946;PMS5003;64628;50.104;14.614;2023-03-23T12:11:48;6;5;
75946;PMS5003;64628;50.104;14.614;2023-03-23T12:14:12;4;4;
75946;PMS5003;64628;50.104;14.614;2023-03-23T12:16:38;5;5;
75946;PMS5003;64628;50.104;14.614;2023-03-23T12:19:01;4;4;
75946;PMS5003;64628;50.104;14.614;2023-03-23T12:21:25;4;4;
75946;PMS5003;64628;50.104;14.614;2023-03-23T12:23:51;5;5;
75946;PMS5003;64628;50.104;14.614;2023-03-23T12:26:19;5;5;
75946;PMS5003;64628;50.104;14.614;2023-03-23T12:28:43;6;6;
75946;PMS5003;64628;50.104;14.614;2023-03-23T12:31:07;6;5;
75946;PMS5003;64628;50.104;14.614;2023-03-23T12:33:33;7;6;
75946;PMS5003;64628;50.104;14.614;2023-03-23T12:35:58;7;7;
75946;PMS5003;64628;50.104;14.614;2023-03-23T12:38:23;6;6;
75946;PMS5003;64628;50.104;14.614;2023-03-23T12:40:48;4;4;
75946;PMS5003;64628;50.104;14.614;2023-03-23T12:43:13;6;5;
75946;PMS5003;64628;50.104;14.614;2023-03-23T12:45:47;5;5;
75946;PMS5003;64628;50.104;14.614;2023-03-23T12:48:00;5;5;
75946;PMS5003;64628;50.104;14.614;2023-03-23T12:50:27;6;4;
75946;PMS5003;64628;50.104;14.614;2023-03-23T12:52:51;7;5;
75946;PMS5003;64628;50.104;14.614;2023-03-23T12:55:17;6;6;
75946;PMS5003;64628;50.104;14.614;2023-03-23T12:57:42;8;7;
75946;PMS5003;64628;50.104;14.614;2023-03-23T13:00:07;8;8;
75946;PMS5003;64628;50.104;14.614;2023-03-23T13:02:32;5;5;
75946;PMS5003;64628;50.104;14.614;2023-03-23T13:04:57;5;4;
75946;PMS5003;64628;50.104;14.614;2023-03-23T13:07:22;2;2;
75946;PMS5003;64628;50.104;14.614;2023-03-23T13:09:49;5;3;
75946;PMS5003;64628;50.104;14.614;2023-03-23T13:12:11;3;3;
75946;PMS5003;64628;50.104;14.614;2023-03-23T13:14:39;5;5;
75946;PMS5003;64628;50.104;14.614;2023-03-23T13:17:03;4;4;
75946;PMS5003;64628;50.104;14.614;2023-03-23T13:19:28;4;4;
75946;PMS5003;64628;50.104;14.614;2023-03-23T13:21:54;8;5;
75946;PMS5003;64628;50.104;14.614;2023-03-23T13:24:17;7;6;
75946;PMS5003;64628;50.104;14.614;2023-03-23T13:26:42;4;4;
75946;PMS5003;64628;50.104;14.614;2023-03-23T13:29:09;5;5;
75946;PMS5003;64628;50.104;14.614;2023-03-23T13:31:32;3;3;
75946;PMS5003;64628;50.104;14.614;2023-03-23T13:33:58;6;5;
75946;PMS5003;64628;50.104;14.614;2023-03-23T13:36:26;4;3;
75946;PMS5003;64628;50.104;14.614;2023-03-23T13:38:48;4;4;
75946;PMS5003;64628;50.104;14.614;2023-03-23T13:41:13;6;4;
75946;PMS5003;64628;50.104;14.614;2023-03-23T13:43:38;5;3;
75946;PMS5003;64628;50.104;14.614;2023-03-23T13:46:07;4;4;
75946;PMS5003;64628;50.104;14.614;2023-03-23T13:48:28;4;4;
75946;PMS5003;64628;50.104;14.614;2023-03-23T13:50:54;8;5;
75946;PMS5003;64628;50.104;14.614;2023-03-23T13:53:22;7;5;
75946;PMS5003;64628;50.104;14.614;2023-03-23T13:55:47;7;4;
75946;PMS5003;64628;50.104;14.614;2023-03-23T13:58:10;3;3;
75946;PMS5003;64628;50.104;14.614;2023-03-23T14:02:59;3;3;
75946;PMS5003;64628;50.104;14.614;2023-03-23T14:05:28;6;5;
75946;PMS5003;64628;50.104;14.614;2023-03-23T14:07:53;4;4;
75946;PMS5003;64628;50.104;14.614;2023-03-23T14:10:14;4;4;
75946;PMS5003;64628;50.104;14.614;2023-03-23T14:12:39;7;5;
75946;PMS5003;64628;50.104;14.614;2023-03-23T14:15:04;7;5;
75946;PMS5003;64628;50.104;14.614;2023-03-23T14:17:30;5;3;
75946;PMS5003;64628;50.104;14.614;2023-03-23T14:19:56;5;5;
75946;PMS5003;64628;50.104;14.614;2023-03-23T14:22:22;4;4;
75946;PMS5003;64628;50.104;14.614;2023-03-23T14:24:46;8;7;
75946;PMS5003;64628;50.104;14.614;2023-03-23T14:27:12;6;5;
75946;PMS5003;64628;50.104;14.614;2023-03-23T14:29:36;6;5;
75946;PMS5003;64628;50.104;14.614;2023-03-23T14:32:02;8;5;
75946;PMS5003;64628;50.104;14.614;2023-03-23T14:34:27;8;7;
75946;PMS5003;64628;50.104;14.614;2023-03-23T14:36:52;4;4;
75946;PMS5003;64628;50.104;14.614;2023-03-23T14:39:19;6;4;
75946;PMS5003;64628;50.104;14.614;2023-03-23T14:41:42;7;5;
75946;PMS5003;64628;50.104;14.614;2023-03-23T14:44:08;5;5;
75946;PMS5003;64628;50.104;14.614;2023-03-23T14:46:32;5;5;
75946;PMS5003;64628;50.104;14.614;2023-03-23T14:48:59;7;7;
75946;PMS5003;64628;50.104;14.614;2023-03-23T14:51:22;7;6;
75946;PMS5003;64628;50.104;14.614;2023-03-23T14:53:48;7;7;
75946;PMS5003;64628;50.104;14.614;2023-03-23T14:56:17;6;5;
75946;PMS5003;64628;50.104;14.614;2023-03-23T14:58:38;8;5;
75946;PMS5003;64628;50.104;14.614;2023-03-23T15:01:04;6;6;
75946;PMS5003;64628;50.104;14.614;2023-03-23T15:03:30;4;4;
75946;PMS5003;64628;50.104;14.614;2023-03-23T15:05:54;5;5;
75946;PMS5003;64628;50.104;14.614;2023-03-23T15:08:19;6;6;
75946;PMS5003;64628;50.104;14.614;2023-03-23T15:13:11;7;6;
75946;PMS5003;64628;50.104;14.614;2023-03-23T15:15:35;6;6;
75946;PMS5003;64628;50.104;14.614;2023-03-23T15:17:59;6;6;
75946;PMS5003;64628;50.104;14.614;2023-03-23T15:20:25;5;5;
75946;PMS5003;64628;50.104;14.614;2023-03-23T15:22:49;5;5;
75946;PMS5003;64628;50.104;14.614;2023-03-23T15:25:17;6;6;
75946;PMS5003;64628;50.104;14.614;2023-03-23T15:27:40;5;5;
75946;PMS5003;64628;50.104;14.614;2023-03-23T15:32:31;5;5;
75946;PMS5003;64628;50.104;14.614;2023-03-23T15:34:55;8;8;
75946;PMS5003;64628;50.104;14.614;2023-03-23T15:37:21;8;5;
75946;PMS5003;64628;50.104;14.614;2023-03-23T15:39:46;4;4;
75946;PMS5003;64628;50.104;14.614;2023-03-23T15:44:36;4;4;
75946;PMS5003;64628;50.104;14.614;2023-03-23T15:47:02;5;5;
75946;PMS5003;64628;50.104;14.614;2023-03-23T15:49:26;8;8;
75946;PMS5003;64628;50.104;14.614;2023-03-23T15:51:51;5;5;
75946;PMS5003;64628;50.104;14.614;2023-03-23T15:54:16;5;3;
75946;PMS5003;64628;50.104;14.614;2023-03-23T15:56:41;17;15;
75946;PMS5003;64628;50.104;14.614;2023-03-23T15:59:06;9;6;
75946;PMS5003;64628;50.104;14.614;2023-03-23T16:01:31;4;4;
75946;PMS5003;64628;50.104;14.614;2023-03-23T16:03:57;5;5;
75946;PMS5003;64628;50.104;14.614;2023-03-23T16:06:22;5;5;
75946;PMS5003;64628;50.104;14.614;2023-03-23T16:08:47;3;3;
75946;PMS5003;64628;50.104;14.614;2023-03-23T16:11:13;6;4;
75946;PMS5003;64628;50.104;14.614;2023-03-23T16:13:37;6;6;
75946;PMS5003;64628;50.104;14.614;2023-03-23T16:16:02;5;4;
75946;PMS5003;64628;50.104;14.614;2023-03-23T16:18:27;6;6;
75946;PMS5003;64628;50.104;14.614;2023-03-23T16:20:52;7;5;
75946;PMS5003;64628;50.104;14.614;2023-03-23T16:23:17;6;5;
75946;PMS5003;64628;50.104;14.614;2023-03-23T16:25:42;8;5;
75946;PMS5003;64628;50.104;14.614;2023-03-23T16:28:08;7;6;